Time;durP1;ratioP1;P1;durP2;ratioP2;P2;SDS_P1;SDS_P2;PMS_P1;PMS_P2;Temp;Humidity;BMP_temperature;BMP_pressure;BME280_temperature;BME280_humidity;BME280_pressure;Samples;Min_cycle;Max_cycle;Signal;HPM_P1;HPM_P2
2022/01/13 00:01:41;;;;;;;;;;;6.00;95.60;;;;;;4976930;28;19922;-85
2022/01/13 00:04:10;;;;;;;;;;;6.00;95.60;;;;;;4991799;28;19918;-85
2022/01/13 00:06:37;;;;;;;;;;;6.00;95.50;;;;;;4983936;28;20180;-85
2022/01/13 00:09:05;;;;;;;;;;;6.00;95.50;;;;;;4989943;28;19934;-84
2022/01/13 00:11:32;;;;;;;;;;;6.00;95.50;;;;;;4966759;28;19922;-84
2022/01/13 00:19:35;;;;;;;;;;;6.00;95.60;;;;;;4978171;28;19913;-85
2022/01/13 00:24:52;;;;;;;;;;;6.00;95.60;;;;;;4970240;28;19951;-84
2022/01/13 00:27:22;;;;;;;;;;;6.00;95.60;;;;;;4990557;28;20297;-85
2022/01/13 00:29:49;;;;;;;;;;;6.00;95.60;;;;;;5003113;28;19922;-84
2022/01/13 00:32:17;;;;;;;;;;;6.00;95.60;;;;;;4978206;28;19920;-85
2022/01/13 00:34:44;;;;;;;;;;;6.00;95.60;;;;;;4979988;28;20314;-84
2022/01/13 00:37:11;;;;;;;;;;;6.00;95.50;;;;;;4972948;28;19924;-84
2022/01/13 00:39:37;;;;;;;;;;;6.00;95.50;;;;;;4989657;28;20125;-84
2022/01/13 00:42:04;;;;;;;;;;;6.00;95.50;;;;;;4963235;28;19913;-84
2022/01/13 00:44:36;;;;;;;;;;;6.00;95.60;;;;;;4987021;28;19913;-84
2022/01/13 00:47:05;;;;;;;;;;;6.00;95.60;;;;;;4985927;28;19913;-85
2022/01/13 00:49:32;;;;;;;;;;;6.00;95.60;;;;;;4969762;28;20533;-85
2022/01/13 00:51:59;;;;;;;;;;;6.10;95.70;;;;;;4974319;28;20234;-84
2022/01/13 00:54:26;;;;;;;;;;;6.10;95.70;;;;;;4992962;28;19913;-84
2022/01/13 00:56:53;;;;;;;;;;;6.10;95.70;;;;;;4969777;28;19913;-84
2022/01/13 00:59:20;;;;;;;;;;;6.10;95.60;;;;;;4963981;28;19918;-85
2022/01/13 01:01:48;;;;;;;;;;;6.10;95.70;;;;;;4950270;28;19952;-85
2022/01/13 01:04:16;;;;;;;;;;;6.10;95.70;;;;;;4972256;28;19913;-85
2022/01/13 01:06:43;;;;;;;;;;;6.10;95.70;;;;;;4993500;28;20145;-85
2022/01/13 01:09:14;;;;;;;;;;;6.20;95.70;;;;;;4976841;28;20309;-84
2022/01/13 01:11:43;;;;;;;;;;;6.10;95.60;;;;;;4962649;28;20474;-85
2022/01/13 01:14:12;;;;;;;;;;;6.10;95.60;;;;;;4970170;28;19921;-84
2022/01/13 01:16:39;;;;;;;;;;;6.10;95.60;;;;;;4963388;28;19932;-85
2022/01/13 01:19:08;;;;;;;;;;;6.10;95.60;;;;;;4975034;28;20294;-84
2022/01/13 01:26:52;;;;;;;;;;;6.00;95.50;;;;;;4995390;28;19913;-85
2022/01/13 01:29:27;;;;;;;;;;;6.10;95.50;;;;;;4964897;28;20246;-85
2022/01/13 01:31:55;;;;;;;;;;;6.00;95.50;;;;;;4972674;28;19913;-85
2022/01/13 01:34:49;;;;;;;;;;;6.00;95.50;;;;;;4983378;28;19921;-84
2022/01/13 01:37:18;;;;;;;;;;;6.00;95.50;;;;;;4958549;28;19927;-84
2022/01/13 01:39:46;;;;;;;;;;;6.00;95.50;;;;;;4992097;28;20110;-84
2022/01/13 01:42:14;;;;;;;;;;;6.00;95.60;;;;;;4969721;28;19914;-84
2022/01/13 01:44:44;;;;;;;;;;;6.00;95.60;;;;;;4965959;28;20023;-85
2022/01/13 01:47:13;;;;;;;;;;;6.00;95.60;;;;;;4972557;28;20381;-84
2022/01/13 01:49:42;;;;;;;;;;;6.00;95.60;;;;;;4968713;28;20597;-84
2022/01/13 01:52:10;;;;;;;;;;;6.00;95.60;;;;;;4971562;28;19920;-84
2022/01/13 01:54:37;;;;;;;;;;;6.00;95.90;;;;;;4992662;28;19940;-84
2022/01/13 01:57:05;;;;;;;;;;;6.00;95.60;;;;;;4968695;28;19965;-84
2022/01/13 01:59:35;;;;;;;;;;;6.00;95.60;;;;;;4981544;28;20118;-85
2022/01/13 02:02:02;;;;;;;;;;;6.00;95.60;;;;;;4969252;28;19920;-84
2022/01/13 02:04:29;;;;;;;;;;;6.00;95.60;;;;;;4972873;28;19943;-85
2022/01/13 02:06:59;;;;;;;;;;;6.00;95.60;;;;;;4988827;28;20440;-84
2022/01/13 02:09:26;;;;;;;;;;;6.00;95.60;;;;;;4960919;28;19917;-85
2022/01/13 02:11:57;;;;;;;;;;;6.00;95.60;;;;;;4990253;28;19917;-85
2022/01/13 02:17:00;;;;;;;;;;;6.00;95.60;;;;;;4997077;28;19910;-85
2022/01/13 02:19:27;;;;;;;;;;;6.00;95.60;;;;;;4978487;28;19918;-85
2022/01/13 02:21:54;;;;;;;;;;;6.00;95.50;;;;;;4982088;28;19914;-84
2022/01/13 02:24:21;;;;;;;;;;;6.00;95.50;;;;;;4978245;28;19936;-85
2022/01/13 02:26:47;;;;;;;;;;;6.00;95.50;;;;;;4978515;28;20011;-85
2022/01/13 02:29:14;;;;;;;;;;;6.00;95.50;;;;;;4997434;28;19922;-85
2022/01/13 02:31:42;;;;;;;;;;;6.00;95.40;;;;;;4986598;28;19914;-84
2022/01/13 02:34:08;;;;;;;;;;;6.00;95.40;;;;;;4983333;28;19924;-85
2022/01/13 02:36:37;;;;;;;;;;;5.90;95.40;;;;;;4988432;28;19924;-85
2022/01/13 02:39:04;;;;;;;;;;;5.90;95.40;;;;;;4983343;28;20297;-85
2022/01/13 02:41:31;;;;;;;;;;;5.90;95.40;;;;;;4984359;28;19940;-85
2022/01/13 02:43:59;;;;;;;;;;;5.90;95.40;;;;;;4993124;28;19914;-85
2022/01/13 02:49:07;;;;;;;;;;;5.90;95.40;;;;;;4987554;28;19921;-84
2022/01/13 02:51:35;;;;;;;;;;;5.90;95.40;;;;;;4982874;28;20007;-85
2022/01/13 02:54:03;;;;;;;;;;;5.90;95.40;;;;;;4988764;28;19913;-85
2022/01/13 02:56:30;;;;;;;;;;;5.90;95.40;;;;;;4994866;28;20367;-86
2022/01/13 02:58:57;;;;;;;;;;;5.90;95.40;;;;;;4993510;28;19936;-85
2022/01/13 03:01:24;;;;;;;;;;;5.90;95.40;;;;;;4979637;28;19917;-84
2022/01/13 03:03:51;;;;;;;;;;;5.90;95.40;;;;;;4988287;28;19913;-85
2022/01/13 03:06:32;;;;;;;;;;;5.80;95.30;;;;;;4986120;28;19929;-85
2022/01/13 03:08:59;;;;;;;;;;;5.80;95.30;;;;;;4988007;28;19920;-86
2022/01/13 03:11:38;;;;;;;;;;;5.80;95.30;;;;;;4991297;28;19928;-85
2022/01/13 03:14:10;;;;;;;;;;;5.90;95.40;;;;;;4982755;28;20445;-84
2022/01/13 03:16:38;;;;;;;;;;;5.80;95.40;;;;;;4987651;28;19914;-84
2022/01/13 03:19:05;;;;;;;;;;;5.80;95.30;;;;;;4981511;28;20157;-84
2022/01/13 03:21:31;;;;;;;;;;;5.80;95.30;;;;;;4984856;28;19918;-84
2022/01/13 03:23:58;;;;;;;;;;;5.80;95.40;;;;;;4981492;28;20024;-85
2022/01/13 03:26:25;;;;;;;;;;;5.80;95.40;;;;;;4987012;28;19918;-85
2022/01/13 03:29:14;;;;;;;;;;;5.70;95.40;;;;;;4987801;28;20144;-84
2022/01/13 03:31:39;;;;;;;;;;;5.80;95.40;;;;;;4983531;28;19917;-84
2022/01/13 03:34:06;;;;;;;;;;;5.80;95.40;;;;;;4992244;28;19918;-85
2022/01/13 03:36:33;;;;;;;;;;;5.80;95.40;;;;;;4984494;28;19927;-85
2022/01/13 03:39:00;;;;;;;;;;;5.80;95.40;;;;;;4983994;28;20401;-84
2022/01/13 03:41:27;;;;;;;;;;;5.80;95.40;;;;;;4994220;28;19910;-85
2022/01/13 03:43:55;;;;;;;;;;;5.70;95.30;;;;;;4987598;28;19913;-85
2022/01/13 03:46:22;;;;;;;;;;;5.80;95.40;;;;;;4970637;28;19922;-85
2022/01/13 03:48:49;;;;;;;;;;;5.70;95.30;;;;;;4955257;28;19918;-84
2022/01/13 03:51:16;;;;;;;;;;;5.70;95.40;;;;;;4995741;28;19922;-84
2022/01/13 03:53:58;;;;;;;;;;;5.70;95.40;;;;;;4981558;28;19922;-85
2022/01/13 03:56:45;;;;;;;;;;;5.70;95.40;;;;;;5005227;28;19914;-85
2022/01/13 03:59:15;;;;;;;;;;;5.70;95.40;;;;;;4990380;28;20106;-86
2022/01/13 04:01:54;;;;;;;;;;;5.70;95.40;;;;;;4995302;28;20273;-85
2022/01/13 04:04:21;;;;;;;;;;;5.70;95.40;;;;;;4991047;28;19913;-85
2022/01/13 04:06:48;;;;;;;;;;;5.70;95.40;;;;;;4995644;28;20409;-85
2022/01/13 04:09:33;;;;;;;;;;;5.70;95.40;;;;;;4962022;28;19940;-85
2022/01/13 04:12:04;;;;;;;;;;;5.70;95.30;;;;;;4980538;28;20504;-86
2022/01/13 04:14:39;;;;;;;;;;;5.70;95.40;;;;;;4983038;28;20387;-85
2022/01/13 04:17:05;;;;;;;;;;;5.70;95.40;;;;;;4994948;28;19923;-85
2022/01/13 04:19:32;;;;;;;;;;;5.60;95.30;;;;;;4960863;28;19914;-85
2022/01/13 04:21:59;;;;;;;;;;;5.60;95.30;;;;;;4986243;28;20774;-84
2022/01/13 04:24:26;;;;;;;;;;;5.60;95.40;;;;;;4977668;28;19940;-84
2022/01/13 04:26:55;;;;;;;;;;;5.60;95.40;;;;;;4974846;28;19924;-84
2022/01/13 04:29:31;;;;;;;;;;;5.60;95.40;;;;;;4987768;28;19924;-85
2022/01/13 04:31:58;;;;;;;;;;;5.60;95.40;;;;;;4976879;28;20153;-85
2022/01/13 04:34:26;;;;;;;;;;;5.60;95.40;;;;;;4993433;28;20289;-85
2022/01/13 04:37:00;;;;;;;;;;;5.60;95.40;;;;;;4999067;28;19925;-85
2022/01/13 04:39:28;;;;;;;;;;;5.60;95.40;;;;;;4984007;28;19939;-86
2022/01/13 04:41:56;;;;;;;;;;;5.60;95.40;;;;;;4982489;28;20382;-85
2022/01/13 04:44:24;;;;;;;;;;;5.60;95.40;;;;;;4987626;28;19920;-85
2022/01/13 04:46:53;;;;;;;;;;;5.60;95.40;;;;;;4988178;28;19914;-85
2022/01/13 04:49:20;;;;;;;;;;;5.60;95.40;;;;;;4993225;28;19914;-85
2022/01/13 04:51:48;;;;;;;;;;;5.60;95.40;;;;;;4991561;28;20275;-85
2022/01/13 04:54:15;;;;;;;;;;;5.50;95.40;;;;;;4991295;28;19917;-85
2022/01/13 04:57:05;;;;;;;;;;;5.50;95.40;;;;;;4970127;28;19914;-85
2022/01/13 04:59:31;;;;;;;;;;;5.50;95.40;;;;;;4993994;28;19917;-85
2022/01/13 05:02:00;;;;;;;;;;;5.50;95.40;;;;;;5000705;28;19928;-86
2022/01/13 05:04:27;;;;;;;;;;;5.50;95.40;;;;;;4987719;28;19920;-85
2022/01/13 05:06:54;;;;;;;;;;;5.50;95.40;;;;;;4974463;28;19920;-85
2022/01/13 05:09:21;;;;;;;;;;;5.50;95.40;;;;;;4989924;28;19916;-85
2022/01/13 05:11:48;;;;;;;;;;;5.50;95.40;;;;;;4989396;28;19917;-85
2022/01/13 05:14:14;;;;;;;;;;;5.50;95.40;;;;;;4974011;28;20512;-85
2022/01/13 05:16:58;;;;;;;;;;;5.40;95.40;;;;;;4971000;28;19920;-85
2022/01/13 05:19:40;;;;;;;;;;;5.40;95.40;;;;;;4989999;28;19919;-85
2022/01/13 05:24:39;;;;;;;;;;;5.40;95.40;;;;;;4995155;28;19913;-84
2022/01/13 05:27:06;;;;;;;;;;;5.40;95.40;;;;;;4975188;28;19922;-85
2022/01/13 05:29:33;;;;;;;;;;;5.40;95.40;;;;;;4990125;28;19923;-85
2022/01/13 05:32:00;;;;;;;;;;;5.40;95.40;;;;;;4983533;28;20314;-84
2022/01/13 05:34:27;;;;;;;;;;;5.30;95.30;;;;;;4987409;28;19922;-85
2022/01/13 05:36:54;;;;;;;;;;;5.30;95.30;;;;;;4991382;28;19929;-85
2022/01/13 05:39:21;;;;;;;;;;;5.30;95.40;;;;;;4980922;28;20309;-84
2022/01/13 05:41:48;;;;;;;;;;;5.30;95.40;;;;;;4983504;28;19921;-85
2022/01/13 05:44:15;;;;;;;;;;;5.30;95.40;;;;;;4985913;28;19944;-85
2022/01/13 05:46:42;;;;;;;;;;;5.20;95.40;;;;;;4991258;28;19924;-85
2022/01/13 05:49:08;;;;;;;;;;;5.20;95.30;;;;;;4992660;28;19913;-85
2022/01/13 05:51:35;;;;;;;;;;;5.20;95.30;;;;;;4994892;28;19921;-85
2022/01/13 05:54:02;;;;;;;;;;;5.20;95.30;;;;;;4983543;28;19921;-85
2022/01/13 05:56:29;;;;;;;;;;;5.20;95.40;;;;;;4998278;28;19916;-85
2022/01/13 05:58:56;;;;;;;;;;;5.20;95.30;;;;;;4978496;28;20362;-85
2022/01/13 06:01:23;;;;;;;;;;;5.20;95.30;;;;;;4992548;28;19928;-84
2022/01/13 06:03:49;;;;;;;;;;;5.10;95.30;;;;;;4998223;28;20014;-84
2022/01/13 06:06:16;;;;;;;;;;;5.20;95.20;;;;;;4989723;28;19914;-85
2022/01/13 06:08:43;;;;;;;;;;;5.10;95.30;;;;;;4978786;28;20413;-85
2022/01/13 06:11:10;;;;;;;;;;;5.10;95.30;;;;;;4964503;28;19926;-85
2022/01/13 06:13:37;;;;;;;;;;;5.00;95.20;;;;;;4982092;28;19922;-85
2022/01/13 06:16:03;;;;;;;;;;;5.00;95.10;;;;;;4993629;28;19913;-85
2022/01/13 06:18:30;;;;;;;;;;;5.00;95.10;;;;;;4985792;28;19917;-85
2022/01/13 06:20:57;;;;;;;;;;;5.00;95.20;;;;;;4998402;28;19921;-85
2022/01/13 06:23:24;;;;;;;;;;;5.00;95.20;;;;;;4983696;28;19921;-85
2022/01/13 06:25:51;;;;;;;;;;;4.90;95.10;;;;;;4982123;28;19913;-85
2022/01/13 06:28:18;;;;;;;;;;;4.90;95.10;;;;;;4990057;28;19920;-85
2022/01/13 06:30:44;;;;;;;;;;;4.90;95.20;;;;;;4974370;28;20022;-85
2022/01/13 06:33:11;;;;;;;;;;;4.90;95.30;;;;;;4999505;28;19924;-84
2022/01/13 06:35:38;;;;;;;;;;;4.90;95.30;;;;;;5008389;28;19918;-85
2022/01/13 06:38:05;;;;;;;;;;;4.90;95.30;;;;;;4995245;28;19920;-85
2022/01/13 06:40:32;;;;;;;;;;;4.90;95.30;;;;;;4965706;28;20479;-85
2022/01/13 06:42:59;;;;;;;;;;;4.90;95.30;;;;;;4994038;28;19920;-85
2022/01/13 06:45:26;;;;;;;;;;;4.90;95.30;;;;;;4978850;28;19914;-85
2022/01/13 06:47:53;;;;;;;;;;;4.90;95.40;;;;;;4994355;28;19913;-84
2022/01/13 06:50:19;;;;;;;;;;;4.90;95.40;;;;;;4996291;28;19918;-85
2022/01/13 06:52:47;;;;;;;;;;;4.90;95.30;;;;;;4990087;28;20121;-85
2022/01/13 06:55:15;;;;;;;;;;;4.90;95.40;;;;;;4979527;28;19922;-84
2022/01/13 06:57:41;;;;;;;;;;;5.00;95.40;;;;;;4986448;28;19913;-85
2022/01/13 07:00:09;;;;;;;;;;;4.90;95.40;;;;;;4973600;28;19920;-84
2022/01/13 07:02:36;;;;;;;;;;;4.90;95.40;;;;;;4988626;28;19992;-85
2022/01/13 07:05:03;;;;;;;;;;;4.90;95.30;;;;;;4995223;28;19920;-85
2022/01/13 07:07:32;;;;;;;;;;;5.00;95.40;;;;;;4994866;28;19913;-86
2022/01/13 07:09:59;;;;;;;;;;;4.90;95.30;;;;;;4981635;28;20533;-84
2022/01/13 07:12:26;;;;;;;;;;;4.90;95.30;;;;;;4974350;28;19917;-85
2022/01/13 07:14:53;;;;;;;;;;;4.90;95.30;;;;;;4986148;28;19923;-84
2022/01/13 07:17:20;;;;;;;;;;;4.90;95.40;;;;;;4991918;28;20449;-84
2022/01/13 07:19:47;;;;;;;;;;;4.90;95.40;;;;;;4992439;28;20017;-84
2022/01/13 07:22:17;;;;;;;;;;;4.90;95.30;;;;;;4992078;28;19913;-85
2022/01/13 07:24:45;;;;;;;;;;;4.90;95.30;;;;;;4980466;28;19928;-84
2022/01/13 07:27:11;;;;;;;;;;;4.90;95.40;;;;;;4966753;28;19952;-84
2022/01/13 07:29:39;;;;;;;;;;;4.90;95.40;;;;;;4993908;28;19920;-85
2022/01/13 07:32:06;;;;;;;;;;;4.90;95.40;;;;;;4984355;28;20444;-85
2022/01/13 07:34:33;;;;;;;;;;;5.00;95.50;;;;;;4996360;28;20693;-85
2022/01/13 07:37:00;;;;;;;;;;;5.00;95.50;;;;;;4996133;28;19924;-84
2022/01/13 07:39:27;;;;;;;;;;;5.00;95.50;;;;;;4995482;28;19936;-84
2022/01/13 07:41:54;;;;;;;;;;;5.00;95.50;;;;;;4984174;28;20386;-84
2022/01/13 07:44:21;;;;;;;;;;;5.00;95.50;;;;;;4985141;28;20156;-84
2022/01/13 07:46:48;;;;;;;;;;;5.00;95.50;;;;;;4968598;28;19913;-85
2022/01/13 07:49:15;;;;;;;;;;;5.00;95.50;;;;;;4994245;28;19928;-84
2022/01/13 07:51:42;;;;;;;;;;;5.10;95.50;;;;;;4986040;28;19920;-84
2022/01/13 07:54:09;;;;;;;;;;;5.10;95.50;;;;;;4983392;28;19920;-84
2022/01/13 07:56:36;;;;;;;;;;;5.10;95.50;;;;;;4977339;28;20382;-84
2022/01/13 07:59:02;;;;;;;;;;;5.10;95.50;;;;;;4977973;28;19918;-84
2022/01/13 08:01:29;;;;;;;;;;;5.10;95.50;;;;;;4975647;28;19920;-85
2022/01/13 08:03:56;;;;;;;;;;;5.10;95.50;;;;;;4988433;28;20029;-84
2022/01/13 08:06:23;;;;;;;;;;;5.10;95.50;;;;;;4988947;28;19913;-84
2022/01/13 08:08:50;;;;;;;;;;;5.10;95.50;;;;;;4986002;28;20137;-84
2022/01/13 08:11:17;;;;;;;;;;;5.10;95.60;;;;;;4992950;28;19920;-84
2022/01/13 08:13:44;;;;;;;;;;;5.20;95.60;;;;;;4978626;28;20053;-84
2022/01/13 08:16:11;;;;;;;;;;;5.20;95.60;;;;;;4977598;28;19917;-84
2022/01/13 08:21:24;;;;;;;;;;;5.20;95.60;;;;;;4996608;28;19924;-85
2022/01/13 08:23:51;;;;;;;;;;;5.20;95.60;;;;;;4990705;28;19940;-85
2022/01/13 08:26:18;;;;;;;;;;;5.20;95.60;;;;;;4994587;28;19917;-84
2022/01/13 08:28:44;;;;;;;;;;;5.20;95.60;;;;;;4978885;28;19914;-84
2022/01/13 08:31:11;;;;;;;;;;;5.20;95.50;;;;;;4984512;28;19920;-84
2022/01/13 08:33:39;;;;;;;;;;;5.20;95.40;;;;;;4987120;28;20394;-84
2022/01/13 08:36:06;;;;;;;;;;;5.20;95.50;;;;;;4996401;28;19923;-85
2022/01/13 08:38:34;;;;;;;;;;;5.20;95.40;;;;;;4990891;28;20279;-84
2022/01/13 08:41:01;;;;;;;;;;;5.20;95.40;;;;;;4989821;28;19921;-85
2022/01/13 08:43:28;;;;;;;;;;;5.20;95.50;;;;;;4976470;28;20264;-85
2022/01/13 08:45:55;;;;;;;;;;;5.20;95.50;;;;;;4981594;28;19913;-84
2022/01/13 08:48:22;;;;;;;;;;;5.20;95.50;;;;;;4986363;28;19921;-84
2022/01/13 08:50:49;;;;;;;;;;;5.20;95.50;;;;;;5009797;28;19936;-84
2022/01/13 08:53:16;;;;;;;;;;;5.20;95.50;;;;;;4990567;28;19926;-84
2022/01/13 08:55:44;;;;;;;;;;;5.30;95.60;;;;;;4993309;28;20115;-84
2022/01/13 08:58:11;;;;;;;;;;;5.30;95.60;;;;;;4978448;28;19914;-84
2022/01/13 09:00:38;;;;;;;;;;;5.30;95.60;;;;;;4973332;28;19913;-84
2022/01/13 09:03:08;;;;;;;;;;;5.30;95.60;;;;;;4979849;28;19913;-85
2022/01/13 09:05:36;;;;;;;;;;;5.30;95.50;;;;;;4976534;28;19928;-85
2022/01/13 09:08:04;;;;;;;;;;;5.30;95.50;;;;;;4991960;28;19913;-84
2022/01/13 09:10:31;;;;;;;;;;;5.30;95.40;;;;;;4973999;28;19913;-84
2022/01/13 09:12:58;;;;;;;;;;;5.20;95.40;;;;;;4986607;28;20526;-84
2022/01/13 09:15:50;;;;;;;;;;;5.20;95.40;;;;;;4986442;28;19922;-84
2022/01/13 09:18:19;;;;;;;;;;;5.30;95.40;;;;;;4996827;28;19928;-85
2022/01/13 09:20:46;;;;;;;;;;;5.30;95.50;;;;;;4980979;28;19939;-84
2022/01/13 09:23:13;;;;;;;;;;;5.30;95.60;;;;;;4997588;28;19914;-84
2022/01/13 09:25:40;;;;;;;;;;;5.30;95.60;;;;;;4989836;28;19913;-84
2022/01/13 09:28:08;;;;;;;;;;;5.30;95.60;;;;;;5010831;28;19920;-84
2022/01/13 09:30:35;;;;;;;;;;;5.40;95.70;;;;;;4966856;28;20928;-85
2022/01/13 09:33:02;;;;;;;;;;;5.40;95.70;;;;;;5011848;28;19918;-85
2022/01/13 09:35:29;;;;;;;;;;;5.40;95.80;;;;;;4970000;28;19927;-85
2022/01/13 09:37:55;;;;;;;;;;;5.50;95.80;;;;;;4998058;28;20219;-85
2022/01/13 09:40:22;;;;;;;;;;;5.50;95.80;;;;;;4997637;28;20107;-85
2022/01/13 09:42:49;;;;;;;;;;;5.60;95.90;;;;;;4997801;28;19917;-85
2022/01/13 09:45:16;;;;;;;;;;;5.60;95.90;;;;;;4977901;28;19918;-85
2022/01/13 09:47:44;;;;;;;;;;;5.60;95.90;;;;;;4977094;28;20042;-85
2022/01/13 09:50:13;;;;;;;;;;;5.60;95.90;;;;;;4992601;28;20267;-85
2022/01/13 09:52:41;;;;;;;;;;;5.70;95.90;;;;;;5000616;28;19914;-85
2022/01/13 09:55:08;;;;;;;;;;;5.70;95.90;;;;;;5002351;28;19936;-85
2022/01/13 09:57:35;;;;;;;;;;;5.80;95.90;;;;;;4990115;28;19914;-85
2022/01/13 10:00:03;;;;;;;;;;;5.80;95.90;;;;;;4990982;28;19921;-85
2022/01/13 10:02:30;;;;;;;;;;;5.80;95.90;;;;;;4968993;28;19913;-85
2022/01/13 10:04:57;;;;;;;;;;;5.80;95.90;;;;;;4986212;28;19922;-85
2022/01/13 10:07:31;;;;;;;;;;;5.90;96.00;;;;;;5010312;28;19914;-85
2022/01/13 10:09:59;;;;;;;;;;;5.90;96.00;;;;;;4996356;28;19913;-85
2022/01/13 10:12:35;;;;;;;;;;;5.90;96.00;;;;;;4994179;28;20302;-85
2022/01/13 10:17:42;;;;;;;;;;;6.00;96.00;;;;;;4983500;28;19922;-85
2022/01/13 10:20:13;;;;;;;;;;;6.00;96.00;;;;;;4985916;28;19914;-84
2022/01/13 10:22:40;;;;;;;;;;;6.00;96.10;;;;;;4993485;28;20415;-85
2022/01/13 10:25:08;;;;;;;;;;;6.10;96.10;;;;;;4994690;28;19920;-85
2022/01/13 10:27:35;;;;;;;;;;;6.10;96.10;;;;;;4994742;28;19914;-85
2022/01/13 10:30:04;;;;;;;;;;;6.20;96.10;;;;;;4991735;28;20290;-85
2022/01/13 10:32:33;;;;;;;;;;;6.30;96.10;;;;;;4982752;28;20593;-85
2022/01/13 10:35:05;;;;;;;;;;;6.30;96.10;;;;;;4998806;28;19928;-85
2022/01/13 10:37:33;;;;;;;;;;;6.30;96.00;;;;;;4985640;28;20311;-85
2022/01/13 10:40:05;;;;;;;;;;;6.30;96.00;;;;;;4996906;28;19919;-85
2022/01/13 10:45:12;;;;;;;;;;;6.40;96.00;;;;;;5001870;28;20393;-85
2022/01/13 10:47:42;;;;;;;;;;;6.40;96.00;;;;;;4979136;28;20438;-84
2022/01/13 10:50:10;;;;;;;;;;;6.40;96.00;;;;;;4997571;28;20278;-84
2022/01/13 10:52:37;;;;;;;;;;;6.40;96.00;;;;;;4984480;28;19917;-85
2022/01/13 10:55:08;;;;;;;;;;;6.40;95.90;;;;;;5002007;28;19922;-85
2022/01/13 10:57:35;;;;;;;;;;;6.40;95.90;;;;;;4977221;28;19920;-85
2022/01/13 11:00:03;;;;;;;;;;;6.50;96.00;;;;;;5000075;28;19920;-85
2022/01/13 11:02:30;;;;;;;;;;;6.50;96.00;;;;;;4980840;28;20313;-85
2022/01/13 11:05:01;;;;;;;;;;;6.40;95.80;;;;;;4979127;28;20414;-84
2022/01/13 11:07:28;;;;;;;;;;;6.40;95.90;;;;;;4984222;28;19917;-85
2022/01/13 11:09:59;;;;;;;;;;;6.40;95.80;;;;;;4990269;28;20096;-85
2022/01/13 11:12:31;;;;;;;;;;;6.40;95.80;;;;;;4993769;28;19924;-84
2022/01/13 11:15:06;;;;;;;;;;;6.40;95.80;;;;;;4976256;28;19921;-85
2022/01/13 11:17:35;;;;;;;;;;;6.40;95.90;;;;;;4985199;28;19921;-85
2022/01/13 11:20:03;;;;;;;;;;;6.30;95.90;;;;;;4975155;28;19914;-84
2022/01/13 11:22:34;;;;;;;;;;;6.30;95.90;;;;;;4977384;28;19914;-84
2022/01/13 11:25:06;;;;;;;;;;;6.40;96.00;;;;;;4995308;28;19920;-85
2022/01/13 11:27:33;;;;;;;;;;;6.30;95.90;;;;;;4984357;28;20405;-85
2022/01/13 11:30:01;;;;;;;;;;;6.40;96.00;;;;;;4993109;28;19926;-85
2022/01/13 11:32:28;;;;;;;;;;;6.40;96.00;;;;;;4987089;28;19922;-85
2022/01/13 11:34:58;;;;;;;;;;;6.40;96.00;;;;;;4977682;28;19925;-84
2022/01/13 11:37:26;;;;;;;;;;;6.40;96.00;;;;;;4980098;28;19917;-84
2022/01/13 11:39:53;;;;;;;;;;;6.50;96.10;;;;;;5007125;28;20422;-84
2022/01/13 11:42:20;;;;;;;;;;;6.50;96.10;;;;;;4995439;28;19917;-84
2022/01/13 11:45:06;;;;;;;;;;;6.60;96.20;;;;;;4991004;28;19943;-84
2022/01/13 11:47:32;;;;;;;;;;;6.60;96.10;;;;;;4985551;28;19913;-84
2022/01/13 11:50:16;;;;;;;;;;;6.70;96.10;;;;;;4994055;28;20354;-86
2022/01/13 11:52:52;;;;;;;;;;;6.70;96.10;;;;;;4961170;28;20118;-84
2022/01/13 11:55:31;;;;;;;;;;;6.70;96.20;;;;;;5006130;28;19921;-84
2022/01/13 11:58:10;;;;;;;;;;;6.80;96.10;;;;;;4988374;28;19918;-84
2022/01/13 12:00:37;;;;;;;;;;;6.80;96.10;;;;;;4989054;28;19920;-84
2022/01/13 12:03:23;;;;;;;;;;;6.80;96.00;;;;;;4985045;28;19914;-84
2022/01/13 12:05:50;;;;;;;;;;;6.80;96.00;;;;;;4970426;28;20461;-85
2022/01/13 12:08:36;;;;;;;;;;;6.90;96.00;;;;;;4985565;28;19922;-84
2022/01/13 12:11:02;;;;;;;;;;;6.80;95.90;;;;;;5010411;28;19913;-84
2022/01/13 12:13:31;;;;;;;;;;;6.80;95.90;;;;;;4993060;28;19923;-84
2022/01/13 12:15:58;;;;;;;;;;;6.90;95.90;;;;;;4996080;28;19925;-84
2022/01/13 12:18:44;;;;;;;;;;;6.90;95.90;;;;;;4989958;28;19914;-84
2022/01/13 12:21:25;;;;;;;;;;;6.90;95.90;;;;;;4993907;28;19914;-84
2022/01/13 12:23:52;;;;;;;;;;;6.90;95.90;;;;;;4975373;28;20153;-84
2022/01/13 12:26:34;;;;;;;;;;;6.90;95.80;;;;;;4995620;28;19920;-84
2022/01/13 12:29:15;;;;;;;;;;;6.90;95.80;;;;;;4989554;28;19914;-84
2022/01/13 12:31:49;;;;;;;;;;;6.90;95.80;;;;;;4989735;28;19914;-84
2022/01/13 12:34:40;;;;;;;;;;;6.90;95.80;;;;;;4987744;28;19913;-84
2022/01/13 12:37:13;;;;;;;;;;;6.90;95.80;;;;;;4973429;28;19943;-84
2022/01/13 12:39:43;;;;;;;;;;;6.90;95.80;;;;;;4992076;28;19914;-84
2022/01/13 12:42:14;;;;;;;;;;;6.90;95.80;;;;;;4990813;28;19918;-84
2022/01/13 12:47:26;;;;;;;;;;;6.90;95.80;;;;;;4995311;28;19919;-84
2022/01/13 12:49:53;;;;;;;;;;;6.90;95.80;;;;;;4990218;28;20105;-85
2022/01/13 12:52:21;;;;;;;;;;;6.90;95.80;;;;;;4998983;28;19922;-84
2022/01/13 12:54:48;;;;;;;;;;;7.00;95.90;;;;;;4975896;28;20136;-85
2022/01/13 12:57:16;;;;;;;;;;;7.00;95.90;;;;;;5000639;28;20362;-85
2022/01/13 12:59:45;;;;;;;;;;;7.00;95.90;;;;;;4993830;28;20301;-85
2022/01/13 13:02:12;;;;;;;;;;;7.00;95.90;;;;;;5000659;28;19917;-85
2022/01/13 13:04:39;;;;;;;;;;;7.10;96.00;;;;;;4992131;28;19927;-84
2022/01/13 13:07:06;;;;;;;;;;;7.10;96.00;;;;;;4981170;28;20442;-84
2022/01/13 13:09:33;;;;;;;;;;;7.10;96.00;;;;;;4986985;28;19913;-84
2022/01/13 13:12:02;;;;;;;;;;;7.10;96.00;;;;;;4995178;28;19920;-84
2022/01/13 13:14:34;;;;;;;;;;;7.10;95.90;;;;;;4991705;28;20278;-85
2022/01/13 13:17:01;;;;;;;;;;;7.10;95.90;;;;;;5001783;28;19914;-84
2022/01/13 13:19:37;;;;;;;;;;;7.10;95.90;;;;;;4988560;28;19920;-84
2022/01/13 13:22:07;;;;;;;;;;;7.10;95.90;;;;;;5000318;28;19944;-84
2022/01/13 13:24:40;;;;;;;;;;;7.10;95.90;;;;;;4975654;28;19920;-84
2022/01/13 13:27:07;;;;;;;;;;;7.10;95.90;;;;;;4996839;28;20275;-84
2022/01/13 13:29:33;;;;;;;;;;;7.20;96.00;;;;;;4993960;28;20240;-84
2022/01/13 13:32:00;;;;;;;;;;;7.20;96.00;;;;;;4993476;28;19917;-84
2022/01/13 13:34:28;;;;;;;;;;;7.20;96.00;;;;;;4996322;28;19996;-84
2022/01/13 13:36:55;;;;;;;;;;;7.20;96.00;;;;;;4990769;28;20114;-84
2022/01/13 13:39:22;;;;;;;;;;;7.20;96.00;;;;;;4992401;28;19924;-84
2022/01/13 13:41:50;;;;;;;;;;;7.20;96.00;;;;;;4987620;28;19918;-84
2022/01/13 13:44:18;;;;;;;;;;;7.20;96.00;;;;;;4994690;28;20020;-84
2022/01/13 13:46:46;;;;;;;;;;;7.30;96.00;;;;;;4988974;28;20019;-84
2022/01/13 13:49:12;;;;;;;;;;;7.30;96.00;;;;;;5010580;28;19914;-84
2022/01/13 13:51:40;;;;;;;;;;;7.30;96.00;;;;;;5004331;28;19914;-84
2022/01/13 13:54:10;;;;;;;;;;;7.30;96.00;;;;;;4998973;28;19920;-84
2022/01/13 13:56:36;;;;;;;;;;;7.40;96.00;;;;;;4978081;28;19925;-85
2022/01/13 13:59:04;;;;;;;;;;;7.40;96.10;;;;;;4997370;28;19920;-84
2022/01/13 14:01:31;;;;;;;;;;;7.40;96.10;;;;;;4996770;28;20297;-85
2022/01/13 14:03:57;;;;;;;;;;;7.40;96.10;;;;;;4991954;28;20435;-85
2022/01/13 14:06:41;;;;;;;;;;;7.40;96.10;;;;;;4990537;28;19913;-84
2022/01/13 14:09:10;;;;;;;;;;;7.40;96.10;;;;;;4988773;28;20286;-84
2022/01/13 14:11:47;;;;;;;;;;;7.50;96.10;;;;;;4974532;28;19930;-85
2022/01/13 14:14:15;;;;;;;;;;;7.50;96.10;;;;;;4989648;28;19914;-84
2022/01/13 14:16:42;;;;;;;;;;;7.50;96.00;;;;;;4996525;28;19917;-84
2022/01/13 14:19:12;;;;;;;;;;;7.50;96.00;;;;;;4991174;28;19928;-84
2022/01/13 14:21:52;;;;;;;;;;;7.50;96.00;;;;;;4995618;28;20121;-84
2022/01/13 14:24:29;;;;;;;;;;;7.50;96.00;;;;;;4985198;28;19913;-84
2022/01/13 14:27:16;;;;;;;;;;;7.60;96.00;;;;;;4979508;28;19920;-84
2022/01/13 14:29:50;;;;;;;;;;;7.50;95.90;;;;;;4986094;28;19919;-84
2022/01/13 14:32:22;;;;;;;;;;;7.50;95.90;;;;;;4995663;28;20286;-84
2022/01/13 14:34:53;;;;;;;;;;;7.50;95.80;;;;;;4991013;28;19917;-85
2022/01/13 14:37:21;;;;;;;;;;;7.50;95.90;;;;;;4990104;28;19917;-84
2022/01/13 14:40:06;;;;;;;;;;;7.50;95.90;;;;;;4992013;28;19913;-84
2022/01/13 14:42:33;;;;;;;;;;;7.50;95.90;;;;;;4974890;28;19921;-84
2022/01/13 14:45:15;;;;;;;;;;;7.40;95.90;;;;;;4977181;28;19914;-84
2022/01/13 14:47:42;;;;;;;;;;;7.40;95.80;;;;;;4978661;28;19922;-84
2022/01/13 14:50:09;;;;;;;;;;;7.50;95.90;;;;;;4981567;28;19920;-84
2022/01/13 14:52:36;;;;;;;;;;;7.40;95.80;;;;;;4994219;28;19914;-84
2022/01/13 14:55:03;;;;;;;;;;;7.40;95.90;;;;;;4984277;28;19918;-84
2022/01/13 14:57:30;;;;;;;;;;;7.50;95.90;;;;;;4967315;28;20293;-84
2022/01/13 14:59:57;;;;;;;;;;;7.40;95.90;;;;;;4966121;28;20126;-84
2022/01/13 15:02:23;;;;;;;;;;;7.40;96.10;;;;;;4999446;28;19923;-85
2022/01/13 15:04:51;;;;;;;;;;;7.40;95.80;;;;;;5002381;28;20197;-84
2022/01/13 15:07:17;;;;;;;;;;;7.40;95.80;;;;;;4997019;28;20282;-84
2022/01/13 15:09:44;;;;;;;;;;;7.40;95.70;;;;;;4978268;28;20099;-84
2022/01/13 15:12:11;;;;;;;;;;;7.30;95.70;;;;;;4982825;28;19921;-84
2022/01/13 15:14:38;;;;;;;;;;;7.30;95.70;;;;;;4984643;28;19917;-84